Hilton Head Airport

Date: 2024-06-11 04:15:00Z

Type: METAR

Weather: Heavy Thunderstorms

Winds: 230° at 8 kts

Visibility: 0.75

Ceiling (AGL FT): Clouds BROKEN at 500, BROKEN at 1600, OVERCAST at 6500, BROKEN at 4500

RAW METAR: KHXD 110415Z AUTO 23008KT 190V250 3/4SM +TSRA BKN005 BKN016 OVC065 24/23 A2986 RMK AO2 LTG DSNT ALQDS

project-image